메인 페이지
METAR-TAF:

METAR-TAF

공항 :

Mosinee, 위스콘신, 미국

위도: 44-47N, 경도: 089-40W, 고도: 389m

현재 날씨관측

예보는 50분 전, 21:47시(UTC)에 발표되었습니다.
북북서3kt
온도 -1°C
습도 86%
기압 1025 hPa
시정: 3.2km
고도 800ft 상공 구름 많음
약한눈

METAR: KCWA 252147Z 33003KT 2SM -SN BKN008 BKN014OVC022 M01/M03 A3026

시각: 17:37 (22:37 UTC)

예보

예보는 38분 전, 21:59시(UTC)에 발표되었습니다.
예보 대상 시간: 25일 22시부터 26일 18시까지 (UTC)
북북서3kt
시정: 3.2km
고도 900ft 상공 구름 보통
고도 2000ft 상공 흐림
약한눈, 박무
일시적
25일 22시부터 26일 01시까지 (UTC)
시정: 1.6km
고도 900ft 상공 흐림
약한눈, 박무
26일 0100시부터 (UTC)
북북서5kt
시정: 6.4km
고도 1500ft 상공 흐림
약한소낙눈
26일 0900시부터 (UTC)
북서5kt
시정: 10km
고도 2900ft 상공 흐림
26일 1400시부터 (UTC)
북북서6kt
시정: 10km
고도 4000ft 상공 구름 많음

TAF: KCWA 252159Z 2522/2618 34003KT 2SM -SN BR SCT009 OVC020 TEMPO 2522/2601 1SM -SN BR OVC009 FM260100 34005KT 4SM -SHSN OVC015 FM260900 32005KT P6SM OVC029 FM261400 33006KT P6SM BKN040

4,000개 이상의 공항 관측 자료 및 예보 (METAR 및 TAF 보고).

지도상에서 검색 가능한 기상관측소가 노란 점과 빨간 점으로 표시되어 있습니다.

기상관측소 명을 보려면 표시 위로 마우스를 이동하세요.

날씨 관측과 예보를 보려면 클릭하세요.

지도 변경 : 확대하려면 엑스 표시가 있는 녹색 버튼, 축소하려면 빼기 표시가 있는 녹색 버튼, 다음 페이지의 지도를 보려면 녹색 화살표를 클릭하세요.


METAR-TAF: